Time;durP1;ratioP1;P1;durP2;ratioP2;P2;SDS_P1;SDS_P2;PMS_P1;PMS_P2;Temp;Humidity;BMP_temperature;BMP_pressure;BME280_temperature;BME280_humidity;BME280_pressure;Samples;Min_cycle;Max_cycle;Signal;HPM_P1;HPM_P2
2021/12/09 00:01:56;;;;;;;20.85;12.10;;;1.50;99.90;;;;;;5014782;28;20111;-48
2021/12/09 00:04:28;;;;;;;19.10;11.02;;;1.50;99.90;;;;;;4993585;28;20053;-50
2021/12/09 00:33:48;;;;;;;22.13;11.98;;;1.40;99.90;;;;;;5032437;28;20214;-49
2021/12/09 00:36:26;;;;;;;26.10;12.60;;;1.30;99.90;;;;;;5004048;28;20120;-48
2021/12/09 00:38:56;;;;;;;19.10;12.90;;;1.40;99.90;;;;;;5005198;28;20192;-48
2021/12/09 00:41:25;;;;;;;19.95;12.77;;;1.40;99.90;;;;;;5011687;28;20058;-48
2021/12/09 00:43:51;;;;;;;24.85;13.93;;;1.30;99.90;;;;;;5006588;28;20531;-48
2021/12/09 00:46:17;;;;;;;24.17;12.93;;;1.30;99.90;;;;;;5003936;28;20085;-48
2021/12/09 00:48:43;;;;;;;17.58;12.05;;;1.30;99.90;;;;;;5020761;28;20077;-49
2021/12/09 00:51:10;;;;;;;19.63;12.50;;;1.20;99.90;;;;;;5009674;28;20157;-49
2021/12/09 00:53:37;;;;;;;26.20;13.57;;;1.20;99.90;;;;;;5018240;28;20104;-49
2021/12/09 00:56:13;;;;;;;19.00;13.73;;;1.20;99.90;;;;;;5018051;28;20057;-48
2021/12/09 00:58:55;;;;;;;22.15;13.55;;;1.10;99.90;;;;;;4992422;28;20062;-48
2021/12/09 01:01:21;;;;;;;24.88;14.27;;;1.20;99.90;;;;;;5015091;28;20066;-48
2021/12/09 01:03:47;;;;;;;22.25;14.02;;;1.20;99.90;;;;;;4982487;28;20503;-49
2021/12/09 01:06:13;;;;;;;22.77;13.85;;;1.20;99.90;;;;;;5019871;28;20061;-48
2021/12/09 01:08:43;;;;;;;26.90;16.17;;;1.20;99.90;;;;;;5005150;28;20054;-49
2021/12/09 01:11:14;;;;;;;21.85;14.02;;;1.20;99.90;;;;;;5007270;28;20062;-48
2021/12/09 01:13:41;;;;;;;21.65;14.85;;;1.20;99.90;;;;;;5007376;28;20076;-49
2021/12/09 01:16:31;;;;;;;28.98;15.20;;;1.20;99.90;;;;;;5008545;28;20560;-49
2021/12/09 01:18:59;;;;;;;24.67;14.48;;;1.20;99.90;;;;;;5009025;28;20477;-47
2021/12/09 01:21:26;;;;;;;27.10;15.32;;;1.20;99.90;;;;;;5004885;28;20061;-49
2021/12/09 01:23:54;;;;;;;28.92;15.30;;;1.20;99.90;;;;;;5017123;28;20491;-50
2021/12/09 01:26:27;;;;;;;24.95;15.77;;;1.20;99.90;;;;;;5011041;28;20049;-48
2021/12/09 01:28:58;;;;;;;28.25;15.75;;;1.30;99.90;;;;;;5017463;28;20057;-49
2021/12/09 01:31:30;;;;;;;26.20;16.02;;;1.30;99.90;;;;;;4993758;28;20069;-49
2021/12/09 01:34:00;;;;;;;29.45;16.45;;;1.20;99.90;;;;;;4991832;28;20065;-51
2021/12/09 01:36:27;;;;;;;25.85;15.93;;;1.30;99.90;;;;;;5040665;28;20062;-48
2021/12/09 01:39:46;;;;;;;25.67;16.38;;;1.30;99.90;;;;;;5029724;28;20061;-51
2021/12/09 01:42:12;;;;;;;28.60;16.02;;;1.30;99.90;;;;;;5021832;28;20064;-49
2021/12/09 01:44:47;;;;;;;30.27;16.27;;;1.20;99.90;;;;;;5028131;28;20057;-49
2021/12/09 01:47:13;;;;;;;26.00;16.63;;;1.30;99.90;;;;;;5013565;28;20381;-51
2021/12/09 01:49:45;;;;;;;26.02;15.63;;;1.30;99.90;;;;;;5040363;28;20056;-47
2021/12/09 01:52:16;;;;;;;22.67;16.45;;;1.30;99.90;;;;;;5015740;28;20482;-47
2021/12/09 01:54:42;;;;;;;27.67;17.85;;;1.20;99.90;;;;;;5035139;28;20132;-49
2021/12/09 01:57:10;;;;;;;29.63;17.83;;;1.20;99.90;;;;;;5046828;28;20187;-48
2021/12/09 01:59:42;;;;;;;25.98;17.42;;;1.20;99.90;;;;;;5036787;28;20119;-50
2021/12/09 02:02:17;;;;;;;27.73;16.95;;;1.20;99.90;;;;;;5017838;28;20127;-48
2021/12/09 02:04:43;;;;;;;27.60;18.50;;;1.20;99.90;;;;;;5003780;28;20085;-50
2021/12/09 02:07:18;;;;;;;27.98;17.13;;;1.20;99.90;;;;;;4997022;28;20541;-48
2021/12/09 02:09:44;;;;;;;30.40;17.35;;;1.20;99.90;;;;;;5013362;28;20053;-48
2021/12/09 02:12:11;;;;;;;27.27;17.20;;;1.20;99.90;;;;;;5008319;28;20541;-48
2021/12/09 02:14:41;;;;;;;27.98;16.85;;;1.10;99.90;;;;;;5007959;28;20049;-48
2021/12/09 02:17:22;;;;;;;27.60;18.60;;;1.10;99.90;;;;;;5009437;28;20057;-50
2021/12/09 02:19:48;;;;;;;26.67;18.05;;;1.10;99.90;;;;;;5009263;28;20069;-48
2021/12/09 02:23:10;;;;;;;26.02;17.27;;;1.00;99.90;;;;;;5014014;28;20127;-50
2021/12/09 02:25:44;;;;;;;27.60;18.58;;;1.00;99.90;;;;;;5027587;28;20064;-48
2021/12/09 02:28:12;;;;;;;27.98;20.02;;;1.00;99.90;;;;;;5031250;28;20128;-48
2021/12/09 02:30:39;;;;;;;30.70;19.60;;;1.00;99.90;;;;;;5013424;28;20061;-50
2021/12/09 02:33:04;;;;;;;33.22;20.88;;;1.00;99.90;;;;;;5029835;28;20138;-49
2021/12/09 02:35:34;;;;;;;28.88;19.02;;;1.10;99.90;;;;;;5029256;28;20507;-49
2021/12/09 02:38:00;;;;;;;28.30;19.77;;;1.00;99.90;;;;;;5013935;28;20064;-51
2021/12/09 02:40:27;;;;;;;29.40;18.85;;;1.00;99.90;;;;;;5030623;28;20049;-50
2021/12/09 02:42:57;;;;;;;31.45;19.58;;;1.00;99.90;;;;;;5042093;28;20611;-51
2021/12/09 02:45:33;;;;;;;28.13;18.27;;;1.00;99.90;;;;;;5013291;28;20475;-53
2021/12/09 02:47:59;;;;;;;29.25;19.50;;;1.00;99.90;;;;;;5001699;28;20057;-51
2021/12/09 02:50:43;;;;;;;29.98;19.88;;;1.00;99.90;;;;;;5019996;28;20115;-48
2021/12/09 02:53:12;;;;;;;26.85;18.75;;;1.00;99.90;;;;;;5024175;28;20056;-48
2021/12/09 02:56:02;;;;;;;35.15;19.88;;;0.90;99.90;;;;;;5051087;28;20052;-49
2021/12/09 02:58:28;;;;;;;31.23;18.95;;;0.90;99.90;;;;;;5029757;28;20072;-48
2021/12/09 03:01:00;;;;;;;34.38;21.10;;;0.90;99.90;;;;;;5047657;28;20511;-49
2021/12/09 03:03:26;;;;;;;33.00;19.50;;;0.90;99.90;;;;;;5049941;28;20525;-48
2021/12/09 03:06:12;;;;;;;31.30;20.67;;;0.90;99.90;;;;;;5029575;28;20100;-48
2021/12/09 03:08:40;;;;;;;34.13;19.95;;;0.90;99.90;;;;;;5048887;28;20131;-48
2021/12/09 03:11:08;;;;;;;33.10;20.02;;;0.90;99.90;;;;;;5031002;28;20083;-49
2021/12/09 03:13:35;;;;;;;31.55;19.77;;;0.90;99.90;;;;;;5029879;28;20061;-49
2021/12/09 03:16:02;;;;;;;30.55;19.45;;;0.80;99.90;;;;;;5030283;28;20147;-49
2021/12/09 03:18:28;;;;;;;33.33;19.88;;;0.80;99.90;;;;;;5032137;28;20081;-47
2021/12/09 03:20:57;;;;;;;34.65;19.63;;;0.80;99.90;;;;;;5031498;28;20139;-48
2021/12/09 03:23:28;;;;;;;28.15;19.48;;;0.80;99.90;;;;;;5022973;28;20057;-48
2021/12/09 03:25:54;;;;;;;33.15;20.17;;;0.70;99.90;;;;;;5028863;28;20110;-47
2021/12/09 03:28:20;;;;;;;36.00;20.33;;;0.70;99.90;;;;;;5029915;28;20061;-47
2021/12/09 03:30:47;;;;;;;31.90;19.50;;;0.70;99.90;;;;;;5032143;28;20508;-49
2021/12/09 03:33:13;;;;;;;33.83;22.30;;;0.60;99.90;;;;;;5010258;28;20053;-50
2021/12/09 03:36:05;;;;;;;29.00;20.83;;;0.70;99.90;;;;;;5016264;28;20503;-48
2021/12/09 03:38:33;;;;;;;32.45;20.90;;;0.70;99.90;;;;;;5014221;28;20057;-48
2021/12/09 03:41:04;;;;;;;38.00;21.75;;;0.70;99.90;;;;;;5023383;28;20053;-48
2021/12/09 03:43:32;;;;;;;37.63;22.60;;;0.70;99.90;;;;;;5028214;28;20139;-49
2021/12/09 03:45:58;;;;;;;38.88;21.30;;;0.80;99.90;;;;;;5031118;28;20055;-49
2021/12/09 03:48:32;;;;;;;37.70;22.02;;;0.80;99.90;;;;;;5030597;28;20127;-52
2021/12/09 03:51:03;;;;;;;38.55;22.02;;;0.80;99.90;;;;;;5033100;28;20053;-50
2021/12/09 03:53:29;;;;;;;34.15;21.67;;;0.80;99.90;;;;;;5015054;28;20092;-49
2021/12/09 03:56:04;;;;;;;34.40;21.83;;;0.80;99.90;;;;;;5014422;28;20119;-49
2021/12/09 03:58:30;;;;;;;32.33;20.55;;;0.80;99.90;;;;;;5026287;28;20064;-48
2021/12/09 04:00:56;;;;;;;39.65;21.98;;;0.80;99.90;;;;;;5012004;28;20061;-48
2021/12/09 04:03:34;;;;;;;35.40;21.13;;;0.80;99.90;;;;;;5029890;28;20511;-49
2021/12/09 04:06:29;;;;;;;36.83;21.58;;;0.90;99.90;;;;;;5030097;28;20419;-48
2021/12/09 04:08:56;;;;;;;38.35;21.08;;;0.90;99.90;;;;;;5015957;28;20071;-48
2021/12/09 04:11:22;;;;;;;33.92;21.48;;;0.80;99.90;;;;;;5029512;28;20499;-48
2021/12/09 04:13:47;;;;;;;32.75;21.60;;;0.80;99.90;;;;;;5018265;28;20053;-49
2021/12/09 04:16:13;;;;;;;34.95;20.75;;;0.80;99.90;;;;;;5033880;28;20140;-48
2021/12/09 04:18:45;;;;;;;36.90;22.60;;;0.80;99.90;;;;;;5012640;28;20057;-48
2021/12/09 04:21:39;;;;;;;30.05;21.20;;;0.90;99.90;;;;;;5026948;28;20088;-48
2021/12/09 04:24:07;;;;;;;;;;;0.90;99.90;;;;;;5027847;28;20056;-48
2021/12/09 04:26:42;;;;;;;37.53;20.90;;;0.90;99.90;;;;;;5029795;28;19925;-51
2021/12/09 04:29:10;;;;;;;34.72;20.52;;;0.90;99.90;;;;;;5040783;28;20416;-48
2021/12/09 04:31:37;;;;;;;35.70;20.48;;;0.90;99.90;;;;;;5035057;28;20048;-48
2021/12/09 04:34:03;;;;;;;31.50;20.55;;;0.90;99.90;;;;;;5022604;28;20053;-48
2021/12/09 04:36:29;;;;;;;34.67;21.45;;;0.90;99.90;;;;;;5030151;28;20061;-50
2021/12/09 04:39:23;;;;;;;32.33;19.70;;;0.90;99.90;;;;;;5023307;28;20061;-48
2021/12/09 04:41:50;;;;;;;34.08;20.98;;;0.90;99.90;;;;;;5010174;28;20397;-48
2021/12/09 04:44:25;;;;;;;30.85;19.73;;;0.90;99.90;;;;;;5038712;28;20593;-48
2021/12/09 04:46:51;;;;;;;29.95;21.30;;;0.90;99.90;;;;;;5029512;28;20498;-48
2021/12/09 04:49:17;;;;;;;30.80;19.98;;;0.90;99.90;;;;;;5017217;28;20106;-48
2021/12/09 04:51:43;;;;;;;34.95;20.45;;;0.90;99.90;;;;;;5013598;28;20058;-48
2021/12/09 04:54:09;;;;;;;29.25;20.08;;;0.90;99.90;;;;;;5029817;28;20059;-50
2021/12/09 04:56:36;;;;;;;34.10;20.83;;;0.90;99.90;;;;;;5029189;28;20080;-48
2021/12/09 04:59:03;;;;;;;35.22;21.52;;;0.90;99.90;;;;;;5027374;28;20804;-49
2021/12/09 05:01:48;;;;;;;44.80;21.42;;;0.90;99.90;;;;;;5027579;28;20053;-49
2021/12/09 05:04:14;;;;;;;29.63;20.10;;;0.90;99.90;;;;;;5017369;28;20069;-48
2021/12/09 05:06:40;;;;;;;32.70;19.88;;;0.80;99.90;;;;;;5026353;28;20106;-48
2021/12/09 05:09:10;;;;;;;37.17;19.73;;;0.80;99.90;;;;;;5014254;28;20136;-49
2021/12/09 05:14:04;;;;;;;31.35;19.67;;;0.80;99.90;;;;;;5027927;28;20104;-48
2021/12/09 05:16:31;;;;;;;36.80;20.10;;;0.80;99.90;;;;;;5022220;28;20152;-50
2021/12/09 05:18:58;;;;;;;34.38;19.92;;;0.80;99.90;;;;;;5023281;28;20077;-48
2021/12/09 05:22:20;;;;;;;35.67;20.13;;;0.80;99.90;;;;;;5025462;28;20111;-50
2021/12/09 05:25:04;;;;;;;29.90;17.40;;;0.80;99.90;;;;;;5033920;28;20107;-48
2021/12/09 05:27:30;;;;;;;38.42;19.50;;;0.70;99.90;;;;;;5016269;28;20171;-48
2021/12/09 05:30:08;;;;;;;33.47;19.23;;;0.70;99.90;;;;;;5033166;28;20049;-48
2021/12/09 05:32:34;;;;;;;28.65;19.77;;;0.70;99.90;;;;;;5025491;28;20064;-49
2021/12/09 05:35:01;;;;;;;34.92;20.85;;;0.70;99.90;;;;;;5028985;28;20463;-49
2021/12/09 05:37:29;;;;;;;30.58;20.17;;;0.60;99.90;;;;;;5036045;28;20067;-48
2021/12/09 05:39:57;;;;;;;35.55;20.52;;;0.60;99.90;;;;;;5029498;28;20115;-51
2021/12/09 05:42:24;;;;;;;33.40;19.92;;;0.60;99.90;;;;;;5012908;28;20060;-48
2021/12/09 05:44:51;;;;;;;33.58;20.13;;;0.60;99.90;;;;;;5013548;28;20053;-50
2021/12/09 05:47:35;;;;;;;34.22;19.48;;;0.50;99.90;;;;;;5013882;28;20056;-49
2021/12/09 05:50:19;;;;;;;37.50;19.50;;;0.50;99.90;;;;;;5013468;28;20167;-49
2021/12/09 05:52:45;;;;;;;31.88;20.10;;;0.50;99.90;;;;;;5015095;28;20061;-48
2021/12/09 05:55:11;;;;;;;36.65;19.27;;;0.50;99.90;;;;;;5007482;28;20049;-48
2021/12/09 05:57:37;;;;;;;32.42;19.50;;;0.40;99.90;;;;;;5035051;28;20120;-48
2021/12/09 06:00:05;;;;;;;30.38;19.55;;;0.50;99.90;;;;;;5037823;28;20411;-49
2021/12/09 06:02:32;;;;;;;34.35;18.98;;;0.50;99.90;;;;;;5036958;28;20069;-51
2021/12/09 06:04:58;;;;;;;33.00;18.58;;;0.40;99.90;;;;;;5040972;28;20064;-50
2021/12/09 06:07:30;;;;;;;33.15;19.15;;;0.40;99.90;;;;;;5019510;28;20053;-48
2021/12/09 06:10:30;;;;;;;37.58;19.15;;;0.40;99.90;;;;;;5014892;28;20061;-48
2021/12/09 06:13:02;;;;;;;39.35;18.88;;;0.40;99.90;;;;;;5006625;28;20139;-47
2021/12/09 06:15:36;;;;;;;35.17;19.85;;;0.40;99.90;;;;;;5015146;28;20061;-49
2021/12/09 06:18:05;;;;;;;31.13;19.05;;;0.40;99.90;;;;;;5028974;28;20527;-48
2021/12/09 06:20:36;;;;;;;34.40;20.35;;;0.40;99.90;;;;;;5032853;28;20054;-47
2021/12/09 06:23:07;;;;;;;37.45;20.42;;;0.40;99.90;;;;;;5018635;28;20139;-48
2021/12/09 06:25:43;;;;;;;34.03;19.17;;;0.40;99.90;;;;;;5028911;28;20057;-47
2021/12/09 06:28:08;;;;;;;33.88;19.52;;;0.30;99.90;;;;;;5011304;28;20065;-47
2021/12/09 06:30:34;;;;;;;34.35;19.13;;;0.30;99.90;;;;;;5028950;28;20060;-48
2021/12/09 06:33:02;;;;;;;32.58;18.70;;;0.30;99.90;;;;;;5018493;28;20097;-48
2021/12/09 06:35:38;;;;;;;34.50;18.83;;;0.30;99.90;;;;;;5012143;28;20123;-47
2021/12/09 06:38:43;;;;;;;37.00;19.73;;;0.20;99.90;;;;;;5014635;28;20572;-49
2021/12/09 06:41:09;;;;;;;37.85;19.80;;;0.20;99.90;;;;;;5012515;28;20144;-49
2021/12/09 06:43:40;;;;;;;34.35;19.73;;;0.20;99.90;;;;;;4994411;28;20118;-49
2021/12/09 06:46:08;;;;;;;33.80;20.95;;;0.20;99.90;;;;;;5011208;28;20059;-47
2021/12/09 06:48:52;;;;;;;33.25;20.38;;;0.20;99.90;;;;;;5030024;28;20119;-48
2021/12/09 06:51:26;;;;;;;34.05;18.65;;;0.30;99.90;;;;;;5011940;28;20356;-48
2021/12/09 06:53:52;;;;;;;34.22;19.90;;;0.20;99.90;;;;;;5013285;28;20488;-49
2021/12/09 06:56:19;;;;;;;36.63;20.42;;;0.30;99.90;;;;;;5041699;28;20115;-48
2021/12/09 06:59:06;;;;;;;33.83;19.45;;;0.20;99.90;;;;;;5044531;28;20135;-48
2021/12/09 07:01:47;;;;;;;38.50;20.08;;;0.20;99.90;;;;;;5029849;28;20463;-50
2021/12/09 07:04:13;;;;;;;36.53;19.42;;;0.20;99.90;;;;;;5003104;28;20061;-50
2021/12/09 07:06:39;;;;;;;38.60;20.38;;;0.20;99.90;;;;;;5004850;28;20058;-47
2021/12/09 07:09:05;;;;;;;34.22;21.00;;;0.10;99.90;;;;;;5030735;28;20060;-50
2021/12/09 07:11:33;;;;;;;36.90;20.13;;;0.10;99.90;;;;;;5014057;28;20178;-49
2021/12/09 07:13:59;;;;;;;35.03;20.05;;;0.10;99.90;;;;;;5040622;28;20519;-50
2021/12/09 07:16:25;;;;;;;40.42;20.60;;;0.10;99.90;;;;;;5019138;28;20122;-48
2021/12/09 07:18:51;;;;;;;36.10;19.20;;;0.00;99.90;;;;;;5032402;28;20151;-49
2021/12/09 07:21:32;;;;;;;32.78;19.85;;;0.00;99.90;;;;;;5032830;28;20091;-48
2021/12/09 07:23:58;;;;;;;29.77;19.55;;;0.00;99.90;;;;;;5049605;28;20179;-48
2021/12/09 07:26:24;;;;;;;35.88;18.83;;;0.00;99.90;;;;;;5028288;28;20064;-48
2021/12/09 07:28:49;;;;;;;34.03;19.50;;;0.00;99.90;;;;;;5035662;28;20567;-48
2021/12/09 07:31:18;;;;;;;40.53;21.48;;;0.00;99.90;;;;;;5028809;28;20567;-48
2021/12/09 07:33:51;;;;;;;34.28;20.40;;;0.10;99.90;;;;;;5024723;28;20409;-50
2021/12/09 07:36:17;;;;;;;34.47;20.52;;;0.10;99.90;;;;;;5015070;28;20057;-47
2021/12/09 07:38:45;;;;;;;32.08;18.92;;;0.10;99.90;;;;;;5008246;28;20065;-47
2021/12/09 07:41:13;;;;;;;36.13;20.27;;;0.10;99.90;;;;;;5032117;28;20065;-48
2021/12/09 07:43:39;;;;;;;33.00;18.77;;;0.10;99.90;;;;;;5028187;28;20057;-49
2021/12/09 07:46:04;;;;;;;32.05;19.55;;;0.10;99.90;;;;;;5026362;28;20058;-48
2021/12/09 07:48:30;;;;;;;34.70;18.55;;;0.10;99.90;;;;;;5013731;28;20067;-48
2021/12/09 07:50:56;;;;;;;41.67;20.42;;;0.10;99.90;;;;;;5015521;28;20053;-48
2021/12/09 07:53:23;;;;;;;37.00;19.83;;;0.10;99.90;;;;;;5028656;28;20126;-49
2021/12/09 07:55:55;;;;;;;33.65;18.45;;;0.10;99.90;;;;;;5033356;28;20088;-48
2021/12/09 07:58:21;;;;;;;35.35;18.30;;;0.00;99.90;;;;;;5011418;28;20067;-51
2021/12/09 08:00:48;;;;;;;33.28;18.95;;;0.00;99.90;;;;;;5022153;28;20514;-50
2021/12/09 08:03:15;;;;;;;35.55;19.80;;;0.00;99.90;;;;;;5024487;28;20882;-48
2021/12/09 08:05:45;;;;;;;35.88;20.05;;;0.00;99.90;;;;;;5007816;28;20615;-49
2021/12/09 08:08:11;;;;;;;36.97;19.90;;;0.10;99.90;;;;;;5027978;28;20914;-47
2021/12/09 08:10:37;;;;;;;38.33;19.42;;;0.10;99.90;;;;;;5006525;28;20110;-51
2021/12/09 08:13:05;;;;;;;34.90;19.67;;;0.10;99.90;;;;;;5029397;28;20097;-48
2021/12/09 08:15:38;;;;;;;34.42;19.05;;;0.10;99.90;;;;;;5023692;28;20054;-48
2021/12/09 08:18:32;;;;;;;34.40;19.25;;;0.20;99.90;;;;;;5034287;28;20061;-49
2021/12/09 08:20:59;;;;;;;35.85;19.48;;;0.10;99.90;;;;;;5008287;28;20049;-51
2021/12/09 08:23:29;;;;;;;36.40;20.45;;;0.10;99.90;;;;;;5026175;28;20065;-48
2021/12/09 08:25:57;;;;;;;35.97;18.67;;;0.20;99.90;;;;;;5015237;28;20041;-49
2021/12/09 08:28:24;;;;;;;30.05;18.55;;;0.20;99.90;;;;;;5019268;28;20522;-48
2021/12/09 08:31:05;;;;;;;36.25;18.25;;;0.20;99.90;;;;;;5001008;28;20106;-48
2021/12/09 08:33:31;;;;;;;30.70;17.45;;;0.20;99.90;;;;;;5019031;28;20152;-48
2021/12/09 08:35:56;;;;;;;29.73;18.13;;;0.20;99.90;;;;;;5004341;28;20061;-51
2021/12/09 08:38:24;;;;;;;30.42;17.85;;;0.30;99.90;;;;;;5028347;28;20091;-48
2021/12/09 08:40:51;;;;;;;36.35;18.05;;;0.30;99.90;;;;;;5005491;28;20556;-49
2021/12/09 08:43:19;;;;;;;39.08;17.75;;;0.30;99.90;;;;;;5016348;28;20045;-50
2021/12/09 08:45:46;;;;;;;30.63;17.83;;;0.40;99.90;;;;;;5028573;28;20384;-48
2021/12/09 08:48:13;;;;;;;37.42;17.75;;;0.30;99.90;;;;;;5023564;28;20057;-51
2021/12/09 08:50:40;;;;;;;34.55;16.88;;;0.40;99.90;;;;;;5028090;28;20427;-47
2021/12/09 08:53:09;;;;;;;32.75;17.17;;;0.40;99.90;;;;;;5008929;28;20061;-49
2021/12/09 08:55:35;;;;;;;30.52;17.38;;;0.50;99.90;;;;;;5014105;28;20057;-48
2021/12/09 08:58:02;;;;;;;36.85;17.65;;;0.50;99.90;;;;;;5027380;28;20053;-48
2021/12/09 09:00:30;;;;;;;31.02;16.30;;;0.50;99.90;;;;;;5004581;28;20401;-49
2021/12/09 09:02:56;;;;;;;31.33;17.35;;;0.50;99.90;;;;;;5008984;28;20413;-50
2021/12/09 09:05:22;;;;;;;33.38;16.98;;;0.60;99.90;;;;;;5003029;28;20049;-48
2021/12/09 09:07:49;;;;;;;31.25;16.40;;;0.70;99.90;;;;;;5022756;28;20053;-48
2021/12/09 09:10:19;;;;;;;29.85;16.15;;;0.70;99.90;;;;;;5001743;28;20054;-48
2021/12/09 09:12:46;;;;;;;31.58;15.93;;;0.70;99.90;;;;;;4984504;28;20115;-48
2021/12/09 09:15:17;;;;;;;32.33;16.08;;;0.80;99.90;;;;;;5018944;28;20045;-49
2021/12/09 09:17:43;;;;;;;30.77;15.73;;;0.80;99.90;;;;;;5001307;28;20061;-49
2021/12/09 09:20:12;;;;;;;29.02;16.48;;;0.80;99.90;;;;;;5024707;28;20385;-48
2021/12/09 09:22:41;;;;;;;29.63;15.45;;;0.80;99.90;;;;;;4999792;28;20651;-52
2021/12/09 09:25:10;;;;;;;27.08;16.20;;;0.90;99.90;;;;;;5008126;28;20097;-49
2021/12/09 09:27:36;;;;;;;23.60;14.88;;;0.90;99.90;;;;;;5017019;28;20345;-48
2021/12/09 09:30:06;;;;;;;28.63;16.00;;;0.90;99.90;;;;;;5022768;28;20166;-49
2021/12/09 09:32:35;;;;;;;27.88;14.18;;;1.00;99.90;;;;;;5026378;28;20114;-48
2021/12/09 09:35:01;;;;;;;24.45;14.80;;;1.00;99.90;;;;;;5026679;28;20452;-49
2021/12/09 09:37:26;;;;;;;25.27;15.25;;;1.00;99.90;;;;;;5042064;28;20144;-48
2021/12/09 09:39:52;;;;;;;28.73;15.85;;;1.10;99.90;;;;;;5015416;28;20065;-49
2021/12/09 09:42:55;;;;;;;23.55;13.68;;;1.10;99.90;;;;;;5029678;28;20053;-48
2021/12/09 09:45:19;;;;;;;25.25;14.23;;;1.20;99.90;;;;;;5040209;28;20112;-49
2021/12/09 09:47:45;;;;;;;35.65;14.95;;;1.20;99.90;;;;;;5030563;28;20061;-48
2021/12/09 09:50:16;;;;;;;27.48;14.73;;;1.20;99.90;;;;;;5044110;28;20811;-50
2021/12/09 09:52:42;;;;;;;23.17;13.00;;;1.30;99.90;;;;;;5038933;28;20500;-48
2021/12/09 09:55:10;;;;;;;27.65;13.50;;;1.30;99.90;;;;;;5048006;28;20060;-51
2021/12/09 09:57:37;;;;;;;29.17;14.48;;;1.30;99.90;;;;;;5047816;28;20060;-55
2021/12/09 10:00:09;;;;;;;27.98;14.38;;;1.40;99.90;;;;;;5032785;28;20815;-51
2021/12/09 10:02:35;;;;;;;23.45;13.52;;;1.50;99.90;;;;;;5022085;28;20500;-49
2021/12/09 10:05:04;;;;;;;27.27;14.75;;;1.50;99.90;;;;;;5021169;28;20072;-48
2021/12/09 10:07:32;;;;;;;20.30;12.70;;;1.60;99.90;;;;;;5014639;28;20146;-48
2021/12/09 10:09:58;;;;;;;30.52;14.50;;;1.60;99.90;;;;;;5005128;28;20073;-48
2021/12/09 10:12:27;;;;;;;26.23;14.55;;;1.70;99.90;;;;;;5026807;28;20114;-50
2021/12/09 10:14:56;;;;;;;26.10;14.18;;;1.70;99.90;;;;;;5028279;28;20469;-48
2021/12/09 10:17:24;;;;;;;25.48;14.13;;;1.70;99.90;;;;;;5026434;28;20067;-48
2021/12/09 10:19:55;;;;;;;35.05;16.73;;;1.70;99.90;;;;;;5035806;28;20423;-48
2021/12/09 10:22:37;;;;;;;33.13;15.95;;;1.80;99.90;;;;;;5021474;28;20061;-49
2021/12/09 10:25:19;;;;;;;34.55;18.63;;;1.90;99.90;;;;;;5025734;28;20095;-48
2021/12/09 10:27:57;;;;;;;33.45;17.88;;;1.90;99.90;;;;;;5013436;28;20060;-48
2021/12/09 10:30:23;;;;;;;37.50;18.92;;;2.00;99.90;;;;;;5040398;28;20463;-47
2021/12/09 10:32:58;;;;;;;42.03;17.77;;;2.00;99.90;;;;;;5031988;28;20439;-50
2021/12/09 10:35:24;;;;;;;38.17;18.58;;;2.10;99.90;;;;;;5043999;28;20089;-49
2021/12/09 10:37:50;;;;;;;36.28;19.38;;;2.10;99.90;;;;;;5006529;28;20163;-47
2021/12/09 10:40:20;;;;;;;40.60;19.77;;;2.20;99.90;;;;;;4996517;28;20058;-47
2021/12/09 10:42:58;;;;;;;40.08;19.92;;;2.20;99.90;;;;;;5012279;28;20659;-48
2021/12/09 10:45:37;;;;;;;43.45;20.48;;;2.20;99.90;;;;;;5018302;28;20056;-48
2021/12/09 10:51:23;;;;;;;37.30;19.75;;;2.30;99.90;;;;;;5026337;28;20057;-48
2021/12/09 10:53:47;;;;;;;38.33;20.77;;;2.30;99.90;;;;;;4996560;28;20060;-48
2021/12/09 10:56:23;;;;;;;40.15;21.63;;;2.40;99.90;;;;;;5009633;28;20064;-50
2021/12/09 10:58:50;;;;;;;42.70;21.58;;;2.40;99.90;;;;;;5000875;28;20069;-49
2021/12/09 11:01:18;;;;;;;54.85;22.17;;;2.40;99.90;;;;;;5015225;28;20054;-48
2021/12/09 11:03:54;;;;;;;45.88;20.30;;;2.40;99.90;;;;;;5008403;28;20065;-53
2021/12/09 11:06:30;;;;;;;38.97;21.27;;;2.40;99.90;;;;;;5017362;28;20066;-49
2021/12/09 11:08:59;;;;;;;37.22;20.35;;;2.40;99.90;;;;;;5001676;28;20067;-49
2021/12/09 11:11:33;;;;;;;38.95;20.88;;;2.40;99.90;;;;;;4995999;28;20061;-48
2021/12/09 11:14:21;;;;;;;40.67;21.77;;;2.50;99.90;;;;;;5002207;28;20054;-48
2021/12/09 11:17:06;;;;;;;41.00;20.85;;;2.50;99.90;;;;;;5016753;28;20532;-48
2021/12/09 11:19:39;;;;;;;38.35;20.20;;;2.50;99.90;;;;;;4988395;28;20521;-51
2021/12/09 11:22:08;;;;;;;38.33;20.92;;;2.60;99.90;;;;;;5012922;28;20053;-48
2021/12/09 11:24:39;;;;;;;42.38;20.60;;;2.60;99.90;;;;;;4997073;28;20123;-48
2021/12/09 11:27:08;;;;;;;36.67;22.00;;;2.60;99.90;;;;;;4973522;28;20060;-48
2021/12/09 11:29:51;;;;;;;38.88;21.90;;;2.60;99.90;;;;;;5012766;28;20049;-49
2021/12/09 11:32:29;;;;;;;36.97;21.67;;;2.60;99.90;;;;;;4993854;28;20064;-48
2021/12/09 11:35:21;;;;;;;41.90;22.13;;;2.60;99.90;;;;;;5019927;28;20092;-49
2021/12/09 11:40:35;;;;;;;41.80;24.98;;;2.60;99.90;;;;;;5016416;28;20058;-49
2021/12/09 11:43:02;;;;;;;41.72;23.25;;;2.70;99.90;;;;;;5009952;28;20105;-51
2021/12/09 11:45:32;;;;;;;44.22;24.08;;;2.70;99.90;;;;;;4991437;28;20138;-48
2021/12/09 11:48:00;;;;;;;46.10;23.25;;;2.70;99.90;;;;;;5014433;28;20057;-48
2021/12/09 11:50:33;;;;;;;45.42;24.58;;;2.70;99.90;;;;;;5015115;28;20064;-48
2021/12/09 11:53:01;;;;;;;50.05;25.25;;;2.80;99.90;;;;;;5019583;28;20579;-48
2021/12/09 11:55:45;;;;;;;55.30;25.75;;;2.80;99.90;;;;;;5004577;28;20064;-48
2021/12/09 12:07:54;;;;;;;49.00;27.88;;;2.90;99.90;;;;;;5002946;28;20115;-50
2021/12/09 12:13:52;;;;;;;46.33;26.98;;;3.00;99.90;;;;;;5012201;28;20064;-48
2021/12/09 12:19:34;;;;;;;54.38;25.98;;;3.10;99.90;;;;;;5001987;28;20062;-47
2021/12/09 12:22:37;;;;;;;51.10;27.58;;;3.20;99.90;;;;;;4997005;28;20133;-49
2021/12/09 12:25:12;;;;;;;56.88;26.52;;;3.20;99.90;;;;;;4993616;28;20056;-51
2021/12/09 12:34:38;;;;;;;52.58;25.23;;;3.20;99.90;;;;;;4900734;29;20051;-47
2021/12/09 12:39:59;;;;;;;48.80;27.15;;;3.20;99.90;;;;;;4986811;28;20140;-48
2021/12/09 12:42:40;;;;;;;50.85;26.27;;;3.30;99.90;;;;;;5012245;28;20057;-51
2021/12/09 12:51:30;;;;;;;41.90;25.23;;;3.30;99.90;;;;;;4981891;28;20875;-52
2021/12/09 12:54:37;;;;;;;45.08;25.95;;;3.30;99.90;;;;;;4971195;28;20141;-47
2021/12/09 12:57:15;;;;;;;45.72;24.63;;;3.30;99.90;;;;;;4978172;28;20481;-51
2021/12/09 12:59:45;;;;;;;45.25;24.10;;;3.30;99.90;;;;;;4981631;28;20046;-47
2021/12/09 13:05:08;;;;;;;45.72;25.00;;;3.30;99.90;;;;;;4979393;28;20058;-48
2021/12/09 13:13:32;;;;;;;38.90;24.00;;;3.30;99.90;;;;;;4987110;28;20356;-48
2021/12/09 13:16:18;;;;;;;46.13;24.80;;;3.30;99.90;;;;;;4982150;28;20132;-48
2021/12/09 13:21:40;;;;;;;47.53;24.77;;;3.40;99.90;;;;;;4980962;28;20053;-47
2021/12/09 13:48:41;;;;;;;;;;;3.50;99.90;;;;;;4903316;29;20148;-49
2021/12/09 13:51:20;;;;;;;38.72;22.77;;;3.50;99.90;;;;;;4882051;29;19934;-48
2021/12/09 13:54:08;;;;;;;36.25;21.88;;;3.50;99.90;;;;;;4909144;29;20134;-49
2021/12/09 13:56:35;;;;;;;36.63;22.50;;;3.50;99.90;;;;;;4897962;29;20064;-48
2021/12/09 13:59:01;;;;;;;36.78;20.83;;;3.50;99.90;;;;;;4900270;29;20079;-49
2021/12/09 14:01:27;;;;;;;36.58;22.23;;;3.50;99.90;;;;;;4884108;29;20635;-52
2021/12/09 14:03:56;;;;;;;36.33;21.63;;;3.50;99.90;;;;;;4901791;29;20067;-50
2021/12/09 14:06:22;;;;;;;34.70;20.63;;;3.50;99.90;;;;;;4905482;29;20059;-47
2021/12/09 14:08:54;;;;;;;38.80;21.73;;;3.50;99.90;;;;;;4893877;29;20525;-49
2021/12/09 14:11:27;;;;;;;45.45;21.77;;;3.50;99.90;;;;;;4899510;29;20067;-48
2021/12/09 14:14:02;;;;;;;43.55;22.60;;;3.40;99.90;;;;;;4886597;28;20118;-50
2021/12/09 14:21:55;;;;;;;48.65;24.15;;;3.50;99.90;;;;;;4999038;28;20061;-48
2021/12/09 14:24:28;;;;;;;45.13;21.27;;;3.50;99.90;;;;;;5001496;28;20160;-47
2021/12/09 14:27:01;;;;;;;37.47;20.45;;;3.50;99.90;;;;;;4997534;28;20050;-49
2021/12/09 14:29:31;;;;;;;36.47;22.63;;;3.50;99.90;;;;;;4993944;28;20405;-48
2021/12/09 14:32:04;;;;;;;33.22;21.10;;;3.50;99.90;;;;;;4984011;28;20093;-48
2021/12/09 14:34:41;;;;;;;43.83;21.70;;;3.50;99.90;;;;;;4979230;28;20089;-47
2021/12/09 14:37:09;;;;;;;37.03;20.88;;;3.50;99.90;;;;;;5001700;28;20623;-47
2021/12/09 14:39:35;;;;;;;42.80;23.08;;;3.50;99.90;;;;;;4998877;28;20053;-48
2021/12/09 14:42:20;;;;;;;43.95;22.35;;;3.50;99.90;;;;;;5019142;28;20080;-48
2021/12/09 14:45:01;;;;;;;40.03;23.60;;;3.50;99.90;;;;;;5016355;28;20054;-49
2021/12/09 14:47:27;;;;;;;39.25;22.10;;;3.50;99.90;;;;;;5003449;28;20069;-48
2021/12/09 14:50:02;;;;;;;41.25;22.73;;;3.50;99.90;;;;;;4999777;28;20057;-48